createdAt,value
2022-08-02T00:03:26.751Z,3.08
2022-08-02T00:08:28.444Z,3.38
2022-08-02T00:13:30.296Z,2.92
2022-08-02T00:18:32.178Z,3.97
2022-08-02T00:23:34.124Z,3.50
2022-08-02T00:28:55.773Z,3.28
2022-08-02T00:34:27.210Z,3.55
2022-08-02T00:39:35.356Z,3.45
2022-08-02T00:44:37.592Z,3.20
2022-08-02T00:49:41.445Z,3.83
2022-08-02T00:54:43.299Z,3.80
2022-08-02T00:59:45.031Z,3.63
2022-08-02T01:04:46.810Z,3.53
2022-08-02T01:09:48.515Z,3.70
2022-08-02T01:14:52.403Z,3.58
2022-08-02T01:20:18.647Z,3.85
2022-08-02T01:25:39.608Z,3.83
2022-08-02T01:30:44.500Z,3.75
2022-08-02T01:35:54.090Z,4.10
2022-08-02T01:40:58.792Z,3.67
2022-08-02T01:46:01.649Z,4.03
2022-08-02T01:51:05.503Z,3.95
2022-08-02T01:56:08.852Z,3.78
2022-08-02T02:01:15.181Z,4.18
2022-08-02T02:12:14.451Z,3.70
2022-08-02T02:16:49.612Z,4.10
2022-08-02T02:21:54.501Z,4.15
2022-08-02T02:26:58.715Z,3.97
2022-08-02T02:32:01.689Z,4.40
2022-08-02T02:37:06.457Z,4.30
2022-08-02T02:42:11.580Z,5.05
2022-08-02T02:47:16.064Z,4.68
2022-08-02T02:52:21.296Z,5.85
2022-08-02T02:57:24.192Z,6.35
2022-08-02T03:02:26.487Z,5.70
2022-08-02T03:07:29.650Z,6.43
2022-08-02T03:12:32.582Z,5.30
2022-08-02T03:17:45.193Z,5.63
2022-08-02T03:22:47.566Z,5.80
2022-08-02T03:27:49.376Z,5.60
2022-08-02T03:32:51.882Z,5.38
2022-08-02T03:37:56.387Z,5.57
2022-08-02T03:43:01.091Z,5.43
2022-08-02T03:48:29.431Z,5.65
2022-08-02T03:53:28.070Z,5.90
2022-08-02T03:58:29.926Z,5.70
2022-08-02T04:03:32.492Z,5.40
2022-08-02T04:08:38.088Z,5.05
2022-08-02T04:13:49.818Z,5.60
2022-08-02T04:18:57.036Z,5.80
2022-08-02T04:24:11.018Z,6.43
2022-08-02T04:29:18.424Z,6.22
2022-08-02T04:34:21.611Z,5.72
2022-08-02T04:39:24.128Z,6.65
2022-08-02T04:44:29.766Z,6.63
2022-08-02T04:49:34.251Z,7.80
2022-08-02T04:54:52.790Z,7.00
2022-08-02T04:59:54.787Z,7.70
2022-08-02T05:05:05.798Z,7.65
2022-08-02T05:10:13.216Z,7.90
2022-08-02T05:15:19.165Z,7.10
2022-08-02T05:20:53.972Z,7.35
2022-08-02T05:36:29.837Z,7.82
2022-08-02T05:41:31.303Z,7.43
2022-08-02T05:46:32.802Z,8.23
2022-08-02T05:51:44.154Z,8.15
2022-08-02T05:57:32.381Z,7.25
2022-08-02T06:02:54.009Z,7.93
2022-08-02T06:07:58.663Z,6.30
2022-08-02T06:13:14.648Z,6.90
2022-08-02T06:18:16.321Z,7.43
2022-08-02T06:23:22.944Z,7.45
2022-08-02T06:28:26.234Z,6.32
2022-08-02T06:33:27.656Z,7.18
2022-08-02T06:39:06.436Z,6.43
2022-08-02T06:44:44.822Z,6.20
2022-08-02T07:23:44.888Z,4.25
2022-08-02T07:34:36.020Z,3.72
2022-08-02T07:39:37.817Z,4.50
2022-08-02T07:44:53.156Z,3.60
2022-08-02T07:49:54.690Z,3.53
2022-08-02T07:54:56.218Z,3.25
2022-08-02T07:59:57.824Z,3.47
2022-08-02T08:04:59.467Z,2.95
2022-08-02T08:10:01.148Z,3.28
2022-08-02T08:15:03.458Z,3.10
2022-08-02T08:20:06.001Z,2.67
2022-08-02T08:25:07.778Z,2.70
2022-08-02T08:30:10.115Z,2.70
2022-08-02T08:35:12.263Z,2.80
2022-08-02T08:41:04.244Z,3.25
2022-08-02T08:46:08.961Z,3.05
2022-08-02T08:51:15.270Z,3.30
2022-08-02T08:56:17.417Z,2.85
2022-08-02T09:01:21.705Z,3.38
2022-08-02T09:06:24.591Z,2.58
2022-08-02T09:11:26.659Z,2.88
2022-08-02T09:16:39.369Z,2.90
2022-08-02T09:21:41.021Z,3.08
2022-08-02T09:26:43.990Z,2.47
2022-08-02T09:31:49.688Z,2.80
2022-08-02T09:36:54.287Z,3.15
2022-08-02T09:42:08.503Z,2.70
2022-08-02T09:47:16.725Z,2.42
2022-08-02T09:52:37.102Z,2.25
2022-08-02T09:57:51.089Z,2.37
2022-08-02T10:03:21.598Z,2.17
2022-08-02T10:08:24.049Z,2.40
2022-08-02T10:13:28.122Z,2.00
2022-08-02T10:18:41.176Z,1.65
2022-08-02T10:23:45.124Z,1.85
2022-08-02T10:28:49.925Z,1.92
2022-08-02T10:33:54.367Z,2.00
2022-08-02T10:38:56.985Z,2.03
2022-08-02T10:44:02.129Z,2.05
2022-08-02T10:49:36.714Z,1.77
2022-08-02T10:54:38.714Z,1.70
2022-08-02T10:59:40.455Z,1.83
2022-08-02T11:04:42.220Z,1.58
2022-08-02T11:09:48.609Z,1.55
2022-08-02T11:15:11.628Z,2.07
2022-08-02T11:20:13.380Z,2.13
2022-08-02T11:25:24.245Z,1.88
2022-08-02T11:30:29.508Z,1.70
2022-08-02T11:35:49.187Z,1.77
2022-08-02T11:40:57.585Z,1.70
2022-08-02T11:46:04.774Z,1.67
2022-08-02T11:56:13.610Z,2.08
2022-08-02T12:01:24.809Z,1.80
2022-08-02T12:06:30.447Z,1.85
2022-08-02T12:11:38.827Z,1.80
2022-08-02T12:16:44.132Z,1.77
2022-08-02T12:21:47.249Z,1.95
2022-08-02T12:26:49.200Z,1.60
2022-08-02T12:31:56.828Z,2.15
2022-08-02T12:37:06.925Z,2.03
2022-08-02T12:42:13.951Z,1.80
2022-08-02T12:47:16.036Z,2.00
2022-08-02T12:52:25.303Z,1.77
2022-08-02T12:57:27.115Z,1.90
2022-08-02T13:02:28.943Z,1.58
2022-08-02T13:07:30.597Z,1.75
2022-08-02T13:12:32.310Z,1.88
2022-08-02T13:17:34.000Z,1.77
2022-08-02T13:22:37.341Z,1.60
2022-08-02T13:27:53.534Z,1.88
2022-08-02T13:32:59.066Z,2.07
2022-08-02T13:43:03.919Z,1.67
2022-08-02T13:48:05.793Z,1.80
2022-08-02T13:53:18.629Z,1.80
2022-08-02T13:58:20.335Z,1.90
2022-08-02T14:03:22.182Z,1.90
2022-08-02T14:08:28.080Z,1.90
2022-08-02T14:13:29.746Z,1.90
2022-08-02T14:18:37.935Z,2.13
2022-08-02T14:23:50.265Z,2.25
2022-08-02T14:28:52.373Z,1.88
2022-08-02T14:33:53.801Z,1.90
2022-08-02T14:38:56.673Z,2.60
2022-08-02T14:43:58.293Z,2.60
2022-08-02T14:49:01.708Z,2.20
2022-08-02T14:54:08.495Z,1.85
2022-08-02T14:59:13.067Z,2.13
2022-08-02T15:04:14.921Z,2.17
2022-08-02T15:09:16.400Z,2.13
2022-08-02T15:14:25.865Z,1.98
2022-08-02T15:19:52.950Z,2.00
2022-08-02T15:24:49.687Z,1.80
2022-08-02T15:29:51.111Z,2.00
2022-08-02T15:34:52.738Z,1.90
2022-08-02T15:39:54.279Z,2.10
2022-08-02T15:44:55.798Z,2.05
2022-08-02T15:49:58.443Z,2.42
2022-08-02T15:55:06.896Z,2.45
2022-08-02T16:00:18.342Z,2.25
2022-08-02T16:05:20.498Z,2.25
2022-08-02T16:10:22.133Z,2.25
2022-08-02T16:15:23.629Z,2.08
2022-08-02T16:20:25.224Z,1.98
2022-08-02T16:25:26.819Z,2.53
2022-08-02T16:30:28.410Z,2.20
2022-08-02T16:35:30.029Z,2.60
2022-08-02T16:40:31.567Z,2.08
2022-08-02T16:45:32.956Z,2.50
2022-08-02T16:50:35.744Z,3.20
2022-08-02T16:55:37.458Z,1.85
2022-08-02T17:00:46.622Z,2.35
2022-08-02T17:05:56.555Z,2.17
2022-08-02T17:10:58.536Z,2.25
2022-08-02T17:16:20.404Z,2.08
2022-08-02T17:21:27.192Z,1.95
2022-08-02T17:26:28.759Z,1.63
2022-08-02T17:31:37.149Z,2.05
2022-08-02T17:36:38.942Z,2.25
2022-08-02T17:41:49.232Z,1.80
2022-08-02T17:46:51.028Z,2.10
2022-08-02T17:52:49.545Z,1.70
2022-08-02T17:57:14.768Z,1.73
2022-08-02T18:02:16.697Z,2.08
2022-08-02T18:07:25.076Z,2.53
2022-08-02T18:12:30.062Z,2.40
2022-08-02T18:17:31.568Z,2.28
2022-08-02T18:22:33.108Z,1.67
2022-08-02T18:27:34.640Z,2.30
2022-08-02T18:38:10.924Z,2.20
2022-08-02T18:43:14.416Z,2.50
2022-08-02T18:48:17.336Z,2.17
2022-08-02T18:53:39.163Z,2.08
2022-08-02T18:58:42.049Z,2.10
2022-08-02T19:03:55.803Z,2.10
2022-08-02T19:14:43.346Z,2.33
2022-08-02T19:20:04.633Z,2.55
2022-08-02T19:25:15.918Z,2.47
2022-08-02T19:30:39.767Z,2.20
2022-08-02T19:36:01.287Z,2.45
2022-08-02T19:41:05.864Z,2.15
2022-08-02T19:52:21.642Z,2.38
2022-08-02T20:03:51.127Z,2.28
2022-08-02T20:15:55.929Z,2.17
2022-08-02T20:21:13.995Z,2.53
2022-08-02T20:32:24.555Z,2.42
2022-08-02T20:37:59.382Z,2.38
2022-08-02T20:42:56.002Z,2.22
2022-08-02T20:48:00.740Z,2.30
2022-08-02T20:53:04.390Z,2.85
2022-08-02T20:58:15.576Z,2.45
2022-08-02T21:03:32.322Z,2.70
2022-08-02T21:08:47.638Z,2.35
2022-08-02T21:26:02.988Z,2.90
2022-08-02T21:31:19.913Z,3.53
2022-08-02T21:36:24.160Z,3.47
2022-08-02T21:41:46.143Z,3.30
2022-08-02T21:46:52.350Z,2.90
2022-08-02T21:51:53.988Z,2.95
2022-08-02T21:57:07.255Z,3.90
2022-08-02T22:02:09.437Z,3.67
2022-08-02T22:07:11.276Z,4.55
2022-08-02T22:12:18.867Z,4.18
2022-08-02T22:17:21.141Z,6.93
2022-08-02T22:22:45.206Z,7.53
2022-08-02T22:28:15.898Z,6.10
2022-08-02T22:33:19.406Z,5.30
2022-08-02T22:38:21.292Z,5.15
2022-08-02T22:43:26.108Z,5.07
2022-08-02T22:48:32.977Z,5.30
2022-08-02T22:53:44.830Z,5.28
2022-08-02T22:58:44.771Z,1.80
2022-08-02T23:04:12.518Z,5.25
2022-08-02T23:15:29.933Z,5.60
2022-08-02T23:20:36.481Z,4.95
2022-08-02T23:26:23.271Z,4.60
2022-08-02T23:31:37.433Z,4.85
2022-08-02T23:36:42.753Z,3.92
2022-08-02T23:41:44.510Z,4.00
2022-08-02T23:46:51.419Z,4.32
2022-08-02T23:52:01.235Z,4.20
2022-08-02T23:57:20.688Z,4.07
